createdAt,value
2018-04-28T00:00:00.759Z,59.37
2018-04-28T00:02:29.142Z,59.37
2018-04-28T00:04:57.562Z,58.48
2018-04-28T00:07:26.696Z,58.60
2018-04-28T00:09:55.091Z,58.84
2018-04-28T00:12:23.823Z,59.35
2018-04-28T00:14:52.928Z,59.53
2018-04-28T00:17:22.075Z,59.56
2018-04-28T00:19:54.948Z,59.41
2018-04-28T00:22:24.104Z,59.72
2018-04-28T00:24:57.190Z,59.21
2018-04-28T00:27:27.202Z,58.92
2018-04-28T00:33:03.281Z,57.69
2018-04-28T00:35:33.144Z,57.07
2018-04-28T00:38:01.505Z,57.15
2018-04-28T00:40:46.420Z,57.61
2018-04-28T00:43:15.458Z,58.06
2018-04-28T00:45:50.978Z,58.35
2018-04-28T00:51:37.476Z,59.02
2018-04-28T00:57:55.369Z,59.87
2018-04-28T01:00:42.084Z,60.18
2018-04-28T01:03:10.764Z,60.05
2018-04-28T01:05:48.250Z,60.44
2018-04-28T01:08:32.205Z,60.68
2018-04-28T01:11:02.368Z,60.28
2018-04-28T01:13:47.530Z,60.39
2018-04-28T01:16:17.339Z,60.66
2018-04-28T01:21:45.174Z,60.91
2018-04-28T01:24:19.835Z,60.54
2018-04-28T01:30:04.371Z,61.70
2018-04-28T01:39:24.562Z,60.06
2018-04-28T01:41:59.357Z,60.65
2018-04-28T01:47:25.773Z,59.81
2018-04-28T01:50:13.370Z,59.69
2018-04-28T01:52:42.750Z,60.40
2018-04-28T01:58:21.807Z,60.59
2018-04-28T02:04:14.460Z,59.16
2018-04-28T02:07:00.506Z,59.79
2018-04-28T02:09:30.074Z,59.91
2018-04-28T02:15:01.584Z,59.69
2018-04-28T02:20:59.863Z,60.12
2018-04-28T02:23:35.544Z,61.17
2018-04-28T02:26:21.635Z,61.27
2018-04-28T02:29:02.324Z,60.95
2018-04-28T02:31:43.232Z,61.48
2018-04-28T02:37:41.467Z,61.87
2018-04-28T02:40:23.959Z,61.82
2018-04-28T02:42:53.515Z,62.63
2018-04-28T02:45:42.298Z,62.80
2018-04-28T02:48:14.365Z,61.96
2018-04-28T02:50:49.319Z,62.22
2018-04-28T02:53:24.580Z,61.75
2018-04-28T02:56:15.677Z,61.58
2018-04-28T02:58:57.280Z,61.44
2018-04-28T03:04:32.314Z,60.48
2018-04-28T03:10:12.758Z,60.61
2018-04-28T03:12:41.100Z,61.11
2018-04-28T03:15:09.452Z,62.01
2018-04-28T03:17:42.451Z,62.62
2018-04-28T03:20:16.240Z,62.46
2018-04-28T03:22:50.091Z,62.80
2018-04-28T03:25:30.732Z,62.63
2018-04-28T03:28:39.985Z,62.46
2018-04-28T03:31:34.503Z,63.33
2018-04-28T03:37:26.293Z,62.57
2018-04-28T03:43:03.411Z,62.28
2018-04-28T03:45:37.021Z,62.37
2018-04-28T03:48:16.289Z,62.57
2018-04-28T03:50:49.131Z,62.16
2018-04-28T03:53:20.861Z,61.69
2018-04-28T03:55:49.240Z,62.24
2018-04-28T03:58:35.300Z,62.24
2018-04-28T04:01:22.298Z,62.07
2018-04-28T04:04:02.919Z,62.28
2018-04-28T04:09:39.813Z,63.39
2018-04-28T04:15:25.555Z,63.26
2018-04-28T04:21:23.344Z,64.69
2018-04-28T04:24:07.939Z,64.14
2018-04-28T04:26:44.604Z,64.47
2018-04-28T04:29:29.527Z,65.11
2018-04-28T04:32:01.585Z,65.09
2018-04-28T04:41:03.180Z,63.49
2018-04-28T04:47:16.829Z,63.66
2018-04-28T04:49:55.569Z,63.46
2018-04-28T04:55:57.305Z,63.30
2018-04-28T05:01:36.888Z,61.55
2018-04-28T05:04:19.846Z,61.32
2018-04-28T05:10:14.817Z,62.67
2018-04-28T05:12:59.559Z,62.40
2018-04-28T05:15:37.051Z,61.81
2018-04-28T05:21:32.500Z,61.73
2018-04-28T05:24:18.687Z,61.16
2018-04-28T05:27:09.147Z,59.42
2018-04-28T05:33:01.141Z,57.59
2018-04-28T05:39:16.147Z,58.57
2018-04-28T05:41:56.243Z,58.86
2018-04-28T05:47:46.106Z,56.04
2018-04-28T05:50:28.848Z,56.61
2018-04-28T05:53:13.815Z,56.03
2018-04-28T05:56:05.766Z,54.92
2018-04-28T06:02:18.772Z,54.17
2018-04-28T06:05:04.815Z,54.04
2018-04-28T06:07:41.414Z,53.99
2018-04-28T06:13:43.970Z,53.61
2018-04-28T06:22:47.348Z,53.22
2018-04-28T06:25:16.427Z,53.18
2018-04-28T06:27:45.576Z,52.25
2018-04-28T06:30:14.571Z,50.70
2018-04-28T06:32:42.948Z,51.03
2018-04-28T06:35:11.311Z,51.23
2018-04-28T06:37:39.703Z,50.69
2018-04-28T06:40:08.030Z,50.44
2018-04-28T06:42:36.353Z,49.75
2018-04-28T06:45:04.737Z,49.82
2018-04-28T06:47:33.099Z,49.19
2018-04-28T06:50:01.473Z,48.44
2018-04-28T06:52:31.075Z,48.49
2018-04-28T06:55:00.176Z,49.35
2018-04-28T06:57:28.565Z,49.07
2018-04-28T06:59:57.688Z,48.16
2018-04-28T07:02:26.233Z,48.66
2018-04-28T07:04:54.655Z,48.40
2018-04-28T07:07:23.032Z,48.39
2018-04-28T07:09:51.344Z,49.02
2018-04-28T07:12:20.462Z,47.87
2018-04-28T07:14:50.071Z,47.69
2018-04-28T07:17:18.385Z,47.84
2018-04-28T07:19:46.784Z,48.52
2018-04-28T07:22:15.256Z,48.34
2018-04-28T07:24:43.640Z,50.51
2018-04-28T07:27:11.971Z,50.72
2018-04-28T07:29:41.105Z,49.08
2018-04-28T07:32:09.417Z,49.29
2018-04-28T07:34:37.756Z,48.02
2018-04-28T07:37:06.178Z,47.03
2018-04-28T07:39:34.572Z,46.32
2018-04-28T07:42:02.939Z,45.04
2018-04-28T07:44:31.301Z,44.55
2018-04-28T07:46:59.628Z,44.98
2018-04-28T07:49:28.713Z,43.92
2018-04-28T07:51:57.819Z,44.50
2018-04-28T07:54:26.908Z,44.01
2018-04-28T07:56:56.080Z,43.28
2018-04-28T07:59:24.666Z,42.43
2018-04-28T08:01:53.051Z,42.37
2018-04-28T08:04:22.188Z,42.83
2018-04-28T08:06:50.584Z,42.67
2018-04-28T08:09:18.942Z,43.34
2018-04-28T08:11:47.308Z,44.07
2018-04-28T08:14:16.463Z,44.43
2018-04-28T08:16:44.803Z,42.58
2018-04-28T08:19:13.145Z,41.86
2018-04-28T08:21:41.759Z,43.14
2018-04-28T08:24:10.100Z,42.99
2018-04-28T08:26:38.508Z,43.38
2018-04-28T08:29:06.870Z,42.92
2018-04-28T08:31:36.085Z,42.09
2018-04-28T08:34:04.417Z,42.40
2018-04-28T08:36:32.749Z,41.69
2018-04-28T08:39:01.832Z,41.27
2018-04-28T08:41:30.925Z,40.35
2018-04-28T08:43:59.675Z,40.34
2018-04-28T08:46:27.986Z,40.31
2018-04-28T08:48:56.315Z,39.44
2018-04-28T08:51:24.712Z,38.64
2018-04-28T08:53:53.055Z,38.71
2018-04-28T08:56:21.403Z,38.16
2018-04-28T08:58:49.770Z,37.68
2018-04-28T09:01:18.122Z,36.80
2018-04-28T09:03:46.546Z,37.22
2018-04-28T09:06:15.419Z,36.66
2018-04-28T09:08:43.731Z,36.75
2018-04-28T09:11:12.067Z,36.65
2018-04-28T09:13:40.440Z,35.81
2018-04-28T09:16:08.783Z,36.33
2018-04-28T09:18:37.131Z,37.77
2018-04-28T09:21:06.299Z,36.86
2018-04-28T09:23:34.651Z,35.77
2018-04-28T09:26:03.071Z,35.15
2018-04-28T09:28:31.996Z,34.81
2018-04-28T09:31:00.369Z,33.41
2018-04-28T09:33:29.479Z,34.09
2018-04-28T09:35:57.844Z,34.14
2018-04-28T09:38:26.943Z,33.45
2018-04-28T09:40:55.296Z,33.40
2018-04-28T09:43:23.660Z,34.26
2018-04-28T09:45:52.042Z,33.82
2018-04-28T09:48:20.559Z,32.97
2018-04-28T09:50:49.081Z,32.25
2018-04-28T09:53:17.426Z,31.18
2018-04-28T09:55:45.803Z,31.55
2018-04-28T09:58:14.944Z,31.05
2018-04-28T10:00:57.882Z,30.64
2018-04-28T10:03:31.280Z,30.35
2018-04-28T10:05:59.788Z,30.38
2018-04-28T10:08:29.305Z,30.75
2018-04-28T10:10:57.866Z,30.89
2018-04-28T10:13:26.984Z,30.48
2018-04-28T10:15:55.340Z,30.17
2018-04-28T10:18:24.498Z,30.34
2018-04-28T10:20:52.838Z,30.30
2018-04-28T10:23:21.966Z,29.67
2018-04-28T10:25:50.311Z,30.05
2018-04-28T10:28:19.413Z,29.48
2018-04-28T10:30:48.567Z,30.02
2018-04-28T10:33:17.233Z,30.09
2018-04-28T10:35:45.606Z,30.54
2018-04-28T10:38:13.924Z,30.62
2018-04-28T10:40:42.286Z,31.49
2018-04-28T10:43:10.730Z,33.40
2018-04-28T10:45:39.055Z,33.20
2018-04-28T10:48:07.437Z,31.71
2018-04-28T10:50:35.776Z,30.70
2018-04-28T10:53:04.120Z,30.07
2018-04-28T10:55:33.523Z,30.47
2018-04-28T10:58:02.648Z,31.29
2018-04-28T11:00:31.024Z,31.33
2018-04-28T11:02:59.419Z,30.94
2018-04-28T11:05:27.777Z,30.83
2018-04-28T11:07:56.100Z,29.89
2018-04-28T11:10:24.761Z,30.72
2018-04-28T11:12:53.148Z,29.84
2018-04-28T11:15:21.507Z,29.61
2018-04-28T11:17:50.098Z,28.96
2018-04-28T11:20:18.511Z,28.70
2018-04-28T11:22:47.673Z,29.62
2018-04-28T11:25:16.100Z,29.10
2018-04-28T11:27:44.471Z,28.75
2018-04-28T11:30:12.830Z,30.36
2018-04-28T11:32:41.210Z,31.16
2018-04-28T11:35:09.588Z,32.76
2018-04-28T11:37:39.642Z,32.72
2018-04-28T11:40:08.984Z,32.82
2018-04-28T11:42:37.350Z,33.82
2018-04-28T11:45:06.516Z,35.21
2018-04-28T11:47:34.928Z,36.99
2018-04-28T11:50:03.307Z,36.36
2018-04-28T11:52:31.792Z,35.91
2018-04-28T11:55:00.238Z,36.29
2018-04-28T11:57:28.645Z,37.50
2018-04-28T11:59:57.770Z,37.30
2018-04-28T12:02:26.332Z,36.97
2018-04-28T12:04:54.705Z,36.76
2018-04-28T12:07:23.806Z,37.33
2018-04-28T12:09:52.167Z,36.76
2018-04-28T12:12:20.606Z,37.24
2018-04-28T12:14:48.959Z,37.97
2018-04-28T12:17:17.366Z,37.04
2018-04-28T12:19:45.719Z,35.91
2018-04-28T12:22:14.067Z,34.87
2018-04-28T12:24:43.880Z,34.65
2018-04-28T12:27:12.283Z,35.21
2018-04-28T12:29:41.493Z,34.45
2018-04-28T12:32:10.624Z,33.02
2018-04-28T12:34:38.985Z,32.92
2018-04-28T12:37:07.347Z,32.57
2018-04-28T12:39:35.747Z,31.67
2018-04-28T12:42:04.096Z,31.49
2018-04-28T12:44:32.446Z,31.26
2018-04-28T12:47:01.251Z,31.04
2018-04-28T12:49:29.635Z,31.71
2018-04-28T12:51:57.995Z,31.83
2018-04-28T12:54:26.380Z,33.05
2018-04-28T12:56:55.501Z,33.42
2018-04-28T12:59:23.854Z,32.92
2018-04-28T13:01:52.271Z,32.39
2018-04-28T13:04:20.641Z,32.94
2018-04-28T13:06:49.005Z,34.54
2018-04-28T13:09:17.784Z,34.52
2018-04-28T13:11:46.222Z,34.26
2018-04-28T13:14:14.566Z,34.69
2018-04-28T13:16:42.946Z,34.10
2018-04-28T13:19:11.297Z,32.60
2018-04-28T13:21:39.627Z,32.52
2018-04-28T13:24:07.988Z,32.62
2018-04-28T13:26:36.308Z,32.34
2018-04-28T13:29:04.680Z,32.44
2018-04-28T13:31:33.525Z,31.58
2018-04-28T13:34:02.644Z,31.42
2018-04-28T13:36:30.982Z,31.66
2018-04-28T13:39:00.113Z,33.05
2018-04-28T13:41:28.510Z,34.61
2018-04-28T13:43:56.865Z,34.38
2018-04-28T13:46:25.220Z,34.34
2018-04-28T13:48:54.320Z,34.43
2018-04-28T13:51:22.686Z,34.29
2018-04-28T13:53:51.204Z,32.58
2018-04-28T13:56:19.607Z,31.77
2018-04-28T13:58:48.010Z,32.25
2018-04-28T14:01:16.398Z,33.68
2018-04-28T14:03:45.518Z,34.57
2018-04-28T14:06:14.608Z,34.51
2018-04-28T14:08:43.772Z,34.19
2018-04-28T14:11:12.157Z,34.62
2018-04-28T14:13:40.493Z,34.83
2018-04-28T14:16:09.119Z,35.11
2018-04-28T14:18:37.455Z,34.84
2018-04-28T14:21:05.843Z,34.20
2018-04-28T14:23:34.181Z,34.64
2018-04-28T14:26:03.289Z,35.74
2018-04-28T14:28:31.646Z,35.23
2018-04-28T14:31:00.017Z,35.59
2018-04-28T14:33:28.345Z,35.79
2018-04-28T14:35:56.663Z,35.81
2018-04-28T14:38:25.287Z,35.66
2018-04-28T14:40:54.409Z,35.16
2018-04-28T14:43:22.752Z,34.35
2018-04-28T14:45:51.131Z,34.51
2018-04-28T14:48:19.487Z,33.94
2018-04-28T14:50:47.825Z,34.16
2018-04-28T14:53:16.254Z,34.25
2018-04-28T14:55:44.576Z,34.59
2018-04-28T14:58:12.928Z,33.07
2018-04-28T15:00:42.233Z,33.78
2018-04-28T15:03:11.340Z,33.50
2018-04-28T15:05:40.507Z,34.88
2018-04-28T15:08:08.915Z,35.43
2018-04-28T15:10:38.018Z,35.05
2018-04-28T15:13:06.376Z,35.25
2018-04-28T15:15:34.732Z,35.55
2018-04-28T15:18:03.115Z,35.32
2018-04-28T15:20:31.528Z,35.21
2018-04-28T15:23:00.056Z,35.85
2018-04-28T15:25:28.349Z,36.52
2018-04-28T15:27:56.724Z,36.95
2018-04-28T15:30:25.079Z,37.29
2018-04-28T15:32:53.564Z,37.93
2018-04-28T15:35:22.790Z,37.92
2018-04-28T15:37:51.160Z,37.88
2018-04-28T15:40:19.584Z,37.10
2018-04-28T15:42:48.898Z,36.41
2018-04-28T15:45:17.797Z,37.30
2018-04-28T15:47:46.180Z,36.83
2018-04-28T15:50:14.500Z,35.96
2018-04-28T15:52:42.875Z,36.29
2018-04-28T15:55:11.540Z,36.59
2018-04-28T15:57:40.222Z,37.77
2018-04-28T16:00:08.616Z,38.15
2018-04-28T16:02:36.968Z,37.52
2018-04-28T16:05:05.310Z,37.24
2018-04-28T16:07:33.787Z,36.70
2018-04-28T16:10:02.446Z,36.86
2018-04-28T16:12:30.882Z,36.60
2018-04-28T16:14:59.339Z,36.87
2018-04-28T16:17:27.681Z,36.60
2018-04-28T16:19:56.019Z,36.29
2018-04-28T16:22:27.284Z,36.48
2018-04-28T16:24:55.613Z,36.91
2018-04-28T16:27:24.030Z,37.25
2018-04-28T16:29:52.538Z,37.96
2018-04-28T16:32:20.842Z,38.05
2018-04-28T16:34:49.194Z,38.12
2018-04-28T16:37:17.603Z,38.07
2018-04-28T16:39:45.983Z,38.08
2018-04-28T16:42:14.357Z,38.11
2018-04-28T16:44:43.100Z,38.51
2018-04-28T16:47:11.479Z,38.56
2018-04-28T16:49:40.089Z,38.39
2018-04-28T16:52:08.641Z,39.43
2018-04-28T16:54:36.968Z,39.71
2018-04-28T16:57:05.385Z,39.47
2018-04-28T16:59:33.750Z,39.25
2018-04-28T17:02:02.061Z,39.28
2018-04-28T17:04:30.405Z,39.38
2018-04-28T17:06:58.796Z,39.16
2018-04-28T17:09:27.160Z,40.45
2018-04-28T17:11:56.734Z,40.22
2018-04-28T17:14:25.221Z,40.48
2018-04-28T17:16:53.632Z,39.82
2018-04-28T17:19:22.002Z,39.57
2018-04-28T17:21:50.491Z,40.44
2018-04-28T17:24:18.898Z,40.45
2018-04-28T17:26:48.084Z,39.95
2018-04-28T17:29:16.458Z,39.72
2018-04-28T17:31:45.632Z,39.53
2018-04-28T17:34:14.837Z,39.50
2018-04-28T17:36:46.601Z,39.70
2018-04-28T17:39:16.540Z,40.18
2018-04-28T17:41:47.059Z,40.10
2018-04-28T17:44:16.308Z,39.80
2018-04-28T17:46:44.627Z,40.17
2018-04-28T17:49:13.923Z,40.18
2018-04-28T17:51:42.163Z,40.76
2018-04-28T17:54:10.487Z,40.48
2018-04-28T17:56:39.740Z,40.72
2018-04-28T17:59:08.072Z,40.54
2018-04-28T18:01:37.188Z,41.24
2018-04-28T18:04:05.550Z,41.42
2018-04-28T18:06:33.882Z,42.19
2018-04-28T18:09:02.289Z,42.19
2018-04-28T18:11:30.650Z,42.14
2018-04-28T18:13:59.260Z,42.18
2018-04-28T18:16:28.412Z,42.28
2018-04-28T18:18:56.866Z,42.54
2018-04-28T18:21:25.215Z,42.31
2018-04-28T18:23:54.674Z,42.56
2018-04-28T18:26:23.967Z,42.46
2018-04-28T18:28:52.450Z,42.68
2018-04-28T18:31:21.700Z,43.00
2018-04-28T18:33:50.072Z,42.48
2018-04-28T18:36:19.570Z,42.53
2018-04-28T18:38:48.507Z,42.69
2018-04-28T18:41:17.427Z,42.73
2018-04-28T18:43:47.060Z,42.89
2018-04-28T18:46:16.450Z,43.15
2018-04-28T18:48:45.666Z,43.07
2018-04-28T18:51:19.037Z,43.09
2018-04-28T18:53:49.377Z,43.52
2018-04-28T18:56:19.691Z,43.74
2018-04-28T18:58:49.182Z,43.99
2018-04-28T19:01:19.297Z,44.05
2018-04-28T19:03:49.055Z,44.62
2018-04-28T19:06:20.194Z,44.97
2018-04-28T19:08:52.047Z,44.84
2018-04-28T19:11:20.923Z,45.71
2018-04-28T19:13:51.051Z,46.34
2018-04-28T19:16:20.285Z,45.71
2018-04-28T19:18:51.094Z,46.04
2018-04-28T19:21:20.485Z,46.63
2018-04-28T19:23:49.991Z,47.24
2018-04-28T19:26:19.815Z,46.73
2018-04-28T19:28:49.461Z,47.42
2018-04-28T19:31:19.026Z,47.63
2018-04-28T19:33:49.556Z,47.61
2018-04-28T19:36:18.748Z,48.41
2018-04-28T19:38:47.746Z,48.89
2018-04-28T19:41:17.955Z,49.48
2018-04-28T19:43:47.346Z,49.74
2018-04-28T19:46:16.476Z,49.71
2018-04-28T19:48:46.508Z,50.08
2018-04-28T19:51:16.274Z,50.36
2018-04-28T19:53:45.783Z,50.30
2018-04-28T19:56:15.188Z,49.98
2018-04-28T19:58:45.689Z,50.46
2018-04-28T20:01:19.290Z,50.61
2018-04-28T20:03:48.293Z,50.45
2018-04-28T20:06:17.209Z,50.38
2018-04-28T20:08:46.668Z,51.29
2018-04-28T20:11:15.811Z,51.70
2018-04-28T20:13:44.608Z,51.65
2018-04-28T20:16:15.370Z,50.91
2018-04-28T20:18:45.381Z,51.86
2018-04-28T20:21:14.315Z,51.49
2018-04-28T20:26:56.630Z,51.96
2018-04-28T20:29:26.815Z,52.15
2018-04-28T20:31:56.354Z,52.01
2018-04-28T20:34:25.133Z,51.92
2018-04-28T20:36:54.899Z,51.83
2018-04-28T20:39:24.525Z,52.51
2018-04-28T20:41:53.354Z,53.75
2018-04-28T20:44:23.403Z,53.02
2018-04-28T20:46:52.678Z,53.00
2018-04-28T20:49:22.409Z,52.68
2018-04-28T20:51:52.400Z,52.97
2018-04-28T20:54:21.254Z,54.04
2018-04-28T20:56:50.884Z,54.13
2018-04-28T20:59:20.958Z,54.03
2018-04-28T21:01:51.012Z,53.13
2018-04-28T21:04:22.125Z,53.74
2018-04-28T21:06:51.063Z,52.39
2018-04-28T21:09:20.651Z,52.44
2018-04-28T21:11:51.706Z,52.41
2018-04-28T21:14:20.894Z,52.52
2018-04-28T21:16:50.391Z,52.41
2018-04-28T21:19:19.187Z,52.48
2018-04-28T21:21:48.028Z,51.85
2018-04-28T21:24:17.012Z,51.91
2018-04-28T21:26:46.741Z,51.88
2018-04-28T21:29:18.000Z,52.02
2018-04-28T21:31:47.639Z,52.52
2018-04-28T21:34:17.817Z,53.38
2018-04-28T21:36:46.894Z,53.61
2018-04-28T21:39:16.484Z,53.16
2018-04-28T21:41:45.655Z,53.31
2018-04-28T21:44:14.568Z,53.73
2018-04-28T21:46:45.480Z,54.19
2018-04-28T21:49:14.370Z,54.58
2018-04-28T21:51:43.943Z,54.45
2018-04-28T21:54:13.796Z,54.72
2018-04-28T21:56:43.670Z,54.45
2018-04-28T21:59:12.308Z,54.88
2018-04-28T22:01:41.084Z,55.37
2018-04-28T22:04:11.653Z,55.22
2018-04-28T22:06:40.483Z,55.41
2018-04-28T22:09:10.215Z,55.34
2018-04-28T22:11:40.362Z,55.11
2018-04-28T22:14:09.428Z,54.85
2018-04-28T22:16:39.533Z,55.25
2018-04-28T22:19:09.448Z,55.09
2018-04-28T22:21:38.204Z,54.94
2018-04-28T22:24:06.783Z,54.81
2018-04-28T22:26:35.953Z,55.26
2018-04-28T22:29:05.229Z,55.81
2018-04-28T22:31:35.791Z,56.14
2018-04-28T22:34:05.714Z,55.64
2018-04-28T22:36:35.576Z,56.03
2018-04-28T22:39:07.335Z,56.00
2018-04-28T22:41:36.798Z,55.66
2018-04-28T22:44:06.858Z,55.86
2018-04-28T22:46:36.164Z,55.33
2018-04-28T22:49:05.067Z,55.70
2018-04-28T22:51:34.011Z,55.56
2018-04-28T22:54:03.387Z,55.89
2018-04-28T22:56:32.117Z,55.72
2018-04-28T22:59:01.276Z,55.77
2018-04-28T23:01:29.954Z,55.70
2018-04-28T23:03:58.811Z,55.74
2018-04-28T23:06:29.466Z,55.90
2018-04-28T23:08:59.144Z,55.80
2018-04-28T23:11:28.232Z,55.76
2018-04-28T23:13:58.143Z,55.74
2018-04-28T23:16:26.926Z,56.41
2018-04-28T23:18:55.926Z,56.55
2018-04-28T23:21:27.957Z,56.19
2018-04-28T23:23:57.407Z,56.47
2018-04-28T23:26:27.534Z,56.01
2018-04-28T23:28:57.004Z,56.36
2018-04-28T23:31:26.955Z,57.43
2018-04-28T23:33:57.067Z,57.29
2018-04-28T23:36:26.487Z,57.51
2018-04-28T23:38:56.238Z,57.69
2018-04-28T23:41:25.324Z,57.54
2018-04-28T23:43:54.565Z,57.26
2018-04-28T23:46:25.027Z,57.25
2018-04-28T23:48:54.041Z,57.33
2018-04-28T23:51:24.389Z,57.53
2018-04-28T23:53:52.992Z,57.36
2018-04-28T23:56:21.642Z,57.38
2018-04-28T23:58:52.833Z,58.88
